createdAt,value
2022-10-23T00:00:41.961Z,13.88
2022-10-23T00:03:43.688Z,14.27
2022-10-23T00:06:45.452Z,14.15
2022-10-23T00:09:47.003Z,14.80
2022-10-23T00:12:48.704Z,13.90
2022-10-23T00:18:51.844Z,14.68
2022-10-23T00:21:53.442Z,14.52
2022-10-23T00:24:54.996Z,15.13
2022-10-23T00:27:59.573Z,15.00
2022-10-23T00:31:04.988Z,13.50
2022-10-23T00:34:08.552Z,14.50
2022-10-23T00:37:10.559Z,14.85
2022-10-23T00:40:12.526Z,14.73
2022-10-23T00:43:21.255Z,13.47
2022-10-23T00:46:22.866Z,14.30
2022-10-23T00:49:25.557Z,13.13
2022-10-23T00:52:27.218Z,13.75
2022-10-23T00:55:28.943Z,13.57
2022-10-23T00:58:34.005Z,13.60
2022-10-23T01:01:35.788Z,14.02
2022-10-23T01:04:37.457Z,13.70
2022-10-23T01:07:51.997Z,13.65
2022-10-23T01:11:01.147Z,13.47
2022-10-23T01:14:38.262Z,13.23
2022-10-23T01:18:03.221Z,13.63
2022-10-23T01:21:08.765Z,13.90
2022-10-23T01:24:37.456Z,13.68
2022-10-23T01:27:40.258Z,13.60
2022-10-23T01:30:43.506Z,13.43
2022-10-23T01:33:47.940Z,13.93
2022-10-23T01:36:49.637Z,14.07
2022-10-23T01:39:53.096Z,13.55
2022-10-23T01:42:59.627Z,13.67
2022-10-23T01:46:03.370Z,13.50
2022-10-23T01:49:06.719Z,13.23
2022-10-23T01:52:09.593Z,13.35
2022-10-23T01:55:11.296Z,13.25
2022-10-23T01:58:19.983Z,14.03
2022-10-23T02:01:22.783Z,14.03
2022-10-23T02:04:29.977Z,13.40
2022-10-23T02:07:31.541Z,13.63
2022-10-23T02:10:41.304Z,13.02
2022-10-23T02:13:47.582Z,13.20
2022-10-23T02:16:53.729Z,13.43
2022-10-23T02:20:12.588Z,13.80
2022-10-23T02:23:21.382Z,13.23
2022-10-23T02:26:34.344Z,13.48
2022-10-23T02:29:43.099Z,12.67
2022-10-23T02:32:52.394Z,12.73
2022-10-23T02:35:53.982Z,13.40
2022-10-23T02:38:55.709Z,13.98
2022-10-23T02:42:25.959Z,13.80
2022-10-23T02:45:52.727Z,12.50
2022-10-23T02:49:05.898Z,12.13
2022-10-23T02:52:17.633Z,11.98
2022-10-23T02:55:34.644Z,12.05
2022-10-23T02:59:00.991Z,11.27
2022-10-23T03:02:06.917Z,11.17
2022-10-23T03:05:10.787Z,12.47
2022-10-23T03:08:13.418Z,11.85
2022-10-23T03:11:15.039Z,11.30
2022-10-23T03:14:16.613Z,12.00
2022-10-23T03:17:22.378Z,11.70
2022-10-23T03:20:24.135Z,11.67
2022-10-23T03:23:25.742Z,10.60
2022-10-23T03:26:27.320Z,10.95
2022-10-23T03:29:31.824Z,11.15
2022-10-23T03:32:33.425Z,10.77
2022-10-23T03:35:35.154Z,12.27
2022-10-23T03:38:36.755Z,10.40
2022-10-23T03:41:38.325Z,10.48
2022-10-23T03:44:43.182Z,10.52
2022-10-23T03:47:45.479Z,10.87
2022-10-23T03:50:47.203Z,10.30
2022-10-23T03:53:48.783Z,10.65
2022-10-23T03:56:53.612Z,10.90
2022-10-23T03:59:58.182Z,10.88
2022-10-23T04:02:59.763Z,9.37
2022-10-23T04:06:01.372Z,9.70
2022-10-23T04:09:02.986Z,10.18
2022-10-23T04:12:04.903Z,9.88
2022-10-23T04:15:11.363Z,9.10
2022-10-23T04:18:12.948Z,8.73
2022-10-23T04:21:14.523Z,9.27
2022-10-23T04:24:16.103Z,9.13
2022-10-23T04:27:17.726Z,9.00
2022-10-23T04:30:19.268Z,8.27
2022-10-23T04:33:20.916Z,9.57
2022-10-23T04:36:22.486Z,8.93
2022-10-23T04:39:24.075Z,9.23
2022-10-23T04:45:35.010Z,9.63
2022-10-23T04:48:36.641Z,9.80
2022-10-23T04:51:38.626Z,8.83
2022-10-23T04:54:40.208Z,8.43
2022-10-23T04:57:41.779Z,8.02
2022-10-23T05:00:47.320Z,8.73
2022-10-23T05:03:48.987Z,9.10
2022-10-23T05:06:50.604Z,9.83
2022-10-23T05:09:52.309Z,8.95
2022-10-23T05:12:54.009Z,9.13
2022-10-23T05:15:55.665Z,8.98
2022-10-23T05:18:57.279Z,8.43
2022-10-23T05:21:58.858Z,8.17
2022-10-23T05:25:02.214Z,8.20
2022-10-23T05:28:03.948Z,9.23
2022-10-23T05:31:05.694Z,7.15
2022-10-23T05:34:09.888Z,7.63
2022-10-23T05:37:14.509Z,6.97
2022-10-23T05:40:16.155Z,7.25
2022-10-23T05:43:17.740Z,6.53
2022-10-23T05:46:23.185Z,5.72
2022-10-23T05:49:25.475Z,6.10
2022-10-23T05:52:27.065Z,6.40
2022-10-23T05:55:28.689Z,7.45
2022-10-23T05:58:30.735Z,6.22
2022-10-23T06:01:32.472Z,6.20
2022-10-23T06:04:35.294Z,5.60
2022-10-23T06:07:36.933Z,5.70
2022-10-23T06:10:38.484Z,5.57
2022-10-23T06:13:42.018Z,5.15
2022-10-23T06:16:43.605Z,5.15
2022-10-23T06:19:46.203Z,5.80
2022-10-23T06:22:47.793Z,5.30
2022-10-23T06:25:54.633Z,4.75
2022-10-23T06:28:56.556Z,4.40
2022-10-23T06:31:58.153Z,4.60
2022-10-23T06:34:59.725Z,5.17
2022-10-23T06:38:01.317Z,4.50
2022-10-23T06:41:03.241Z,5.43
2022-10-23T06:44:04.913Z,5.07
2022-10-23T06:47:06.880Z,5.28
2022-10-23T06:50:11.775Z,4.60
2022-10-23T06:53:16.177Z,5.47
2022-10-23T06:56:17.754Z,4.13
2022-10-23T06:59:19.753Z,4.78
2022-10-23T07:02:21.345Z,4.68
2022-10-23T07:05:27.350Z,5.50
2022-10-23T07:08:28.954Z,5.40
2022-10-23T07:11:30.530Z,4.50
2022-10-23T07:14:32.387Z,4.95
2022-10-23T07:17:33.960Z,4.47
2022-10-23T07:20:35.587Z,5.23
2022-10-23T07:23:37.223Z,4.50
2022-10-23T07:26:38.874Z,4.75
2022-10-23T07:29:40.571Z,4.60
2022-10-23T07:32:42.273Z,5.43
2022-10-23T07:35:46.205Z,4.57
2022-10-23T07:38:47.770Z,4.60
2022-10-23T07:41:49.527Z,4.38
2022-10-23T07:44:51.094Z,4.38
2022-10-23T07:47:52.747Z,4.57
2022-10-23T07:50:57.516Z,4.23
2022-10-23T07:53:59.116Z,4.63
2022-10-23T07:57:00.820Z,4.50
2022-10-23T08:00:02.422Z,5.30
2022-10-23T08:03:04.030Z,6.15
2022-10-23T08:06:05.778Z,7.10
2022-10-23T08:09:07.377Z,6.80
2022-10-23T08:12:09.783Z,7.03
2022-10-23T08:15:11.364Z,7.68
2022-10-23T08:18:13.273Z,10.30
2022-10-23T08:21:15.145Z,14.67
2022-10-23T08:24:16.740Z,24.53
2022-10-23T08:27:18.350Z,29.52
2022-10-23T08:30:19.978Z,34.10
2022-10-23T08:33:21.548Z,36.00
2022-10-23T08:36:27.699Z,36.63
2022-10-23T08:39:29.277Z,33.93
2022-10-23T08:42:30.848Z,37.65
2022-10-23T08:45:52.679Z,33.53
2022-10-23T08:48:59.590Z,34.47
2022-10-23T08:52:03.117Z,30.70
2022-10-23T08:55:16.914Z,15.43
2022-10-23T08:59:08.222Z,11.55
2022-10-23T09:02:27.087Z,10.70
2022-10-23T09:05:38.073Z,10.02
2022-10-23T09:08:39.593Z,9.13
2022-10-23T09:11:56.168Z,9.70
2022-10-23T09:15:05.338Z,12.55
2022-10-23T09:18:16.314Z,14.43
2022-10-23T09:21:21.018Z,15.65
2022-10-23T09:24:24.159Z,17.63
2022-10-23T09:27:25.829Z,17.17
2022-10-23T09:30:28.399Z,16.20
2022-10-23T09:33:29.985Z,15.30
2022-10-23T09:36:32.501Z,14.90
2022-10-23T09:39:39.794Z,19.27
2022-10-23T09:43:00.546Z,20.03
2022-10-23T09:46:05.064Z,18.83
2022-10-23T09:49:07.561Z,23.10
2022-10-23T09:52:12.204Z,23.63
2022-10-23T09:55:31.607Z,26.37
2022-10-23T09:58:37.342Z,22.53
2022-10-23T10:01:53.425Z,19.80
2022-10-23T10:04:55.046Z,17.85
2022-10-23T10:08:18.331Z,11.98
2022-10-23T10:11:41.253Z,12.20
2022-10-23T10:15:05.102Z,10.57
2022-10-23T10:18:36.992Z,10.20
2022-10-23T10:22:00.233Z,11.95
2022-10-23T10:25:43.048Z,9.32
2022-10-23T10:29:10.763Z,8.50
2022-10-23T10:32:35.518Z,8.40
2022-10-23T10:35:38.443Z,8.57
2022-10-23T10:38:53.655Z,8.48
2022-10-23T10:42:08.830Z,6.97
2022-10-23T10:45:18.377Z,8.10
2022-10-23T10:48:49.697Z,7.50
2022-10-23T10:52:18.513Z,7.70
2022-10-23T10:55:50.646Z,6.95
2022-10-23T10:58:59.493Z,7.55
2022-10-23T11:02:27.844Z,6.90
2022-10-23T11:05:34.707Z,7.00
2022-10-23T11:08:49.780Z,6.38
2022-10-23T11:11:58.761Z,6.00
2022-10-23T11:15:00.380Z,6.35
2022-10-23T11:18:04.005Z,6.97
2022-10-23T11:21:17.454Z,7.10
2022-10-23T11:24:54.514Z,7.00
2022-10-23T11:28:20.810Z,6.85
2022-10-23T11:31:55.558Z,6.97
2022-10-23T11:35:09.343Z,7.30
2022-10-23T11:38:17.850Z,7.80
2022-10-23T11:41:26.556Z,8.07
2022-10-23T11:44:34.755Z,7.85
2022-10-23T11:47:40.520Z,7.68
2022-10-23T11:50:45.387Z,8.50
2022-10-23T11:53:50.825Z,8.00
2022-10-23T11:57:15.079Z,9.05
2022-10-23T12:00:23.339Z,8.32
2022-10-23T12:03:32.201Z,8.93
2022-10-23T12:06:40.032Z,8.30
2022-10-23T12:09:44.818Z,8.70
2022-10-23T12:12:55.863Z,8.35
2022-10-23T12:16:00.112Z,7.80
2022-10-23T12:19:16.569Z,9.07
2022-10-23T12:22:20.089Z,9.20
2022-10-23T12:25:27.360Z,8.67
2022-10-23T12:28:58.563Z,8.55
2022-10-23T12:32:03.047Z,8.15
2022-10-23T12:35:23.801Z,8.60
2022-10-23T12:38:26.408Z,8.20
2022-10-23T12:41:29.053Z,6.57
2022-10-23T12:44:30.891Z,6.75
2022-10-23T12:47:32.551Z,4.18
2022-10-23T12:50:34.475Z,2.92
2022-10-23T12:53:36.040Z,2.60
2022-10-23T12:56:39.030Z,1.87
2022-10-23T12:59:41.923Z,1.60
2022-10-23T13:02:43.633Z,2.05
2022-10-23T13:05:45.285Z,2.00
2022-10-23T13:08:51.821Z,2.07
2022-10-23T13:11:53.523Z,1.70
2022-10-23T13:15:12.526Z,2.00
2022-10-23T13:18:14.866Z,1.80
2022-10-23T13:21:27.107Z,2.10
2022-10-23T13:24:29.172Z,2.50
2022-10-23T13:27:34.870Z,2.27
2022-10-23T13:30:42.675Z,1.92
2022-10-23T13:33:52.739Z,2.47
2022-10-23T13:36:56.888Z,1.80
2022-10-23T13:40:07.678Z,2.00
2022-10-23T13:43:13.423Z,2.20
2022-10-23T13:46:15.837Z,2.28
2022-10-23T13:49:17.598Z,1.98
2022-10-23T13:52:20.790Z,1.80
2022-10-23T13:55:23.393Z,1.50
2022-10-23T13:58:25.003Z,1.40
2022-10-23T14:01:29.449Z,1.80
2022-10-23T14:04:31.069Z,1.90
2022-10-23T14:07:32.648Z,2.38
2022-10-23T14:10:35.068Z,4.03
2022-10-23T14:13:39.531Z,2.30
2022-10-23T14:16:41.083Z,2.67
2022-10-23T14:19:42.717Z,2.78
2022-10-23T14:22:44.554Z,2.58
2022-10-23T14:25:46.366Z,2.73
2022-10-23T14:28:48.021Z,2.97
2022-10-23T14:31:49.629Z,4.00
2022-10-23T14:34:53.322Z,4.30
2022-10-23T14:37:54.900Z,4.65
2022-10-23T14:40:59.453Z,5.37
2022-10-23T14:44:04.964Z,4.57
2022-10-23T14:47:06.561Z,4.30
2022-10-23T14:50:09.987Z,4.40
2022-10-23T14:53:11.720Z,4.68
2022-10-23T14:56:18.006Z,4.70
2022-10-23T14:59:19.616Z,4.77
2022-10-23T15:02:21.200Z,4.90
2022-10-23T15:05:22.849Z,4.53
2022-10-23T15:08:24.896Z,4.30
2022-10-23T15:11:29.445Z,5.07
2022-10-23T15:14:31.163Z,4.30
2022-10-23T15:17:34.056Z,4.10
2022-10-23T15:20:35.672Z,3.50
2022-10-23T15:23:38.828Z,4.03
2022-10-23T15:26:47.066Z,4.13
2022-10-23T15:29:48.674Z,4.27
2022-10-23T15:32:50.259Z,4.55
2022-10-23T15:35:52.165Z,5.55
2022-10-23T15:38:53.758Z,5.78
2022-10-23T15:41:59.319Z,5.33
2022-10-23T15:45:00.870Z,4.93
2022-10-23T15:48:02.511Z,4.60
2022-10-23T15:51:04.199Z,5.07
2022-10-23T15:54:06.657Z,4.43
2022-10-23T15:57:08.205Z,4.20
2022-10-23T16:00:10.535Z,3.93
2022-10-23T16:03:12.099Z,3.65
2022-10-23T16:06:14.519Z,3.95
2022-10-23T16:09:16.272Z,3.60
2022-10-23T16:12:18.432Z,4.00
2022-10-23T16:15:20.112Z,4.03
2022-10-23T16:18:22.380Z,3.95
2022-10-23T16:21:25.893Z,4.70
2022-10-23T16:24:27.517Z,3.88
2022-10-23T16:27:32.551Z,4.13
2022-10-23T16:30:34.147Z,4.10
2022-10-23T16:33:35.783Z,5.55
2022-10-23T16:36:40.430Z,5.60
2022-10-23T16:39:42.009Z,5.72
2022-10-23T16:42:43.981Z,5.27
2022-10-23T16:45:45.678Z,5.30
2022-10-23T16:48:47.446Z,5.32
2022-10-23T16:51:49.073Z,5.60
2022-10-23T16:54:50.688Z,5.70
2022-10-23T16:57:52.277Z,5.67
2022-10-23T17:01:04.415Z,7.17
2022-10-23T17:04:06.179Z,7.90
2022-10-23T17:07:07.777Z,9.38
2022-10-23T17:10:09.791Z,7.13
2022-10-23T17:13:11.401Z,7.23
2022-10-23T17:16:22.052Z,7.07
2022-10-23T17:19:45.253Z,7.25
2022-10-23T17:22:46.405Z,7.55
2022-10-23T17:25:49.542Z,6.95
2022-10-23T17:28:57.593Z,7.20
2022-10-23T17:31:59.274Z,7.80
2022-10-23T17:35:00.857Z,7.70
2022-10-23T17:38:02.439Z,7.65
2022-10-23T17:41:04.694Z,8.23
2022-10-23T17:44:06.309Z,7.93
2022-10-23T17:47:07.888Z,8.47
2022-10-23T17:50:12.270Z,7.90
2022-10-23T17:53:13.835Z,8.93
2022-10-23T17:56:19.233Z,8.68
2022-10-23T17:59:24.813Z,8.67
2022-10-23T18:02:26.728Z,10.00
2022-10-23T18:05:28.757Z,10.23
2022-10-23T18:08:30.491Z,10.57
2022-10-23T18:11:34.482Z,10.93
2022-10-23T18:14:37.524Z,10.57
2022-10-23T18:17:39.393Z,11.50
2022-10-23T18:20:41.092Z,12.13
2022-10-23T18:23:42.997Z,13.65
2022-10-23T18:26:46.067Z,14.00
2022-10-23T18:29:47.678Z,14.17
2022-10-23T18:32:49.305Z,14.30
2022-10-23T18:35:50.927Z,16.02
2022-10-23T18:38:52.789Z,17.48
2022-10-23T18:41:56.433Z,18.45
2022-10-23T18:45:00.797Z,17.07
2022-10-23T18:48:02.822Z,15.37
2022-10-23T18:51:04.493Z,16.33
2022-10-23T18:54:08.509Z,15.35
2022-10-23T18:57:10.152Z,15.43
2022-10-23T19:00:15.722Z,15.23
2022-10-23T19:03:17.327Z,14.70
2022-10-23T19:06:19.483Z,15.05
2022-10-23T19:09:21.101Z,15.05
2022-10-23T19:12:23.149Z,15.88
2022-10-23T19:15:24.709Z,15.33
2022-10-23T19:18:26.295Z,16.10
2022-10-23T19:21:31.376Z,16.73
2022-10-23T19:24:45.576Z,16.40
2022-10-23T19:27:47.273Z,16.20
2022-10-23T19:30:51.970Z,17.87
2022-10-23T19:33:53.694Z,16.67
2022-10-23T19:36:55.417Z,16.15
2022-10-23T19:39:57.020Z,15.10
2022-10-23T19:42:58.716Z,15.38
2022-10-23T19:46:06.313Z,15.40
2022-10-23T19:49:11.034Z,15.47
2022-10-23T19:52:12.589Z,15.80
2022-10-23T19:55:14.210Z,17.60
2022-10-23T19:58:15.786Z,17.75
2022-10-23T20:01:22.867Z,18.83
2022-10-23T20:04:24.500Z,17.40
2022-10-23T20:07:26.122Z,16.75
2022-10-23T20:10:28.197Z,15.80
2022-10-23T20:13:29.847Z,16.25
2022-10-23T20:16:36.108Z,16.67
2022-10-23T20:19:37.786Z,16.27
2022-10-23T20:22:41.738Z,16.42
2022-10-23T20:25:44.749Z,15.13
2022-10-23T20:28:48.378Z,16.30
2022-10-23T20:31:53.542Z,16.53
2022-10-23T20:34:55.087Z,15.50
2022-10-23T20:37:56.638Z,16.58
2022-10-23T20:41:00.386Z,16.42
2022-10-23T20:44:02.003Z,15.95
2022-10-23T20:47:07.591Z,15.17
2022-10-23T20:50:09.339Z,14.60
2022-10-23T20:53:10.901Z,16.20
2022-10-23T20:56:14.586Z,15.90
2022-10-23T20:59:17.503Z,15.38
2022-10-23T21:02:19.179Z,17.23
2022-10-23T21:05:20.816Z,14.43
2022-10-23T21:08:22.371Z,14.85
2022-10-23T21:11:24.158Z,13.38
2022-10-23T21:14:25.722Z,13.82
2022-10-23T21:20:33.741Z,13.53
2022-10-23T21:23:36.138Z,12.95
2022-10-23T21:26:37.754Z,12.63
2022-10-23T21:29:42.156Z,13.48
2022-10-23T21:32:48.002Z,14.03
2022-10-23T21:35:58.365Z,13.50
2022-10-23T21:39:01.769Z,14.25
2022-10-23T21:42:03.427Z,13.43
2022-10-23T21:45:05.521Z,13.73
2022-10-23T21:48:11.064Z,14.03
2022-10-23T21:51:24.045Z,14.40
2022-10-23T21:54:25.677Z,14.15
2022-10-23T21:57:30.490Z,14.10
2022-10-23T22:00:35.526Z,14.60
2022-10-23T22:03:41.378Z,13.90
2022-10-23T22:06:43.501Z,13.97
2022-10-23T22:09:45.115Z,13.75
2022-10-23T22:12:46.681Z,14.65
2022-10-23T22:15:49.005Z,14.40
2022-10-23T22:18:53.643Z,14.07
2022-10-23T22:21:55.355Z,14.40
2022-10-23T22:24:56.945Z,14.40
2022-10-23T22:27:59.249Z,17.08
2022-10-23T22:31:01.420Z,15.40
2022-10-23T22:34:18.665Z,15.40
2022-10-23T22:37:29.265Z,16.87
2022-10-23T22:40:30.919Z,18.02
2022-10-23T22:43:32.534Z,17.95
2022-10-23T22:46:34.112Z,17.35
2022-10-23T22:49:38.873Z,19.40
2022-10-23T22:52:40.408Z,18.97
2022-10-23T22:55:42.982Z,18.58
2022-10-23T22:58:44.632Z,18.20
2022-10-23T23:01:46.810Z,17.20
2022-10-23T23:04:51.991Z,16.00
2022-10-23T23:07:53.591Z,16.13
2022-10-23T23:10:56.333Z,14.00
2022-10-23T23:13:58.002Z,14.90
2022-10-23T23:16:59.628Z,13.20
2022-10-23T23:20:05.171Z,14.67
2022-10-23T23:23:06.753Z,13.70
2022-10-23T23:26:08.675Z,14.10
2022-10-23T23:29:10.267Z,14.75
2022-10-23T23:32:11.848Z,15.30
2022-10-23T23:35:13.532Z,14.97
2022-10-23T23:38:15.133Z,14.97
2022-10-23T23:41:17.429Z,14.65
2022-10-23T23:44:19.040Z,14.90
2022-10-23T23:47:20.647Z,14.88
2022-10-23T23:50:26.153Z,14.43
2022-10-23T23:53:27.764Z,16.33
2022-10-23T23:56:29.547Z,14.75
2022-10-23T23:59:35.904Z,15.52
